createdAt,value
2023-01-21T00:01:17.321Z,95.30
2023-01-21T00:03:45.737Z,95.40
2023-01-21T00:06:16.007Z,95.90
2023-01-21T00:08:44.181Z,96.10
2023-01-21T00:11:14.727Z,96.10
2023-01-21T00:13:43.760Z,96.50
2023-01-21T00:16:13.419Z,96.50
2023-01-21T00:18:41.534Z,97.00
2023-01-21T00:21:09.569Z,97.30
2023-01-21T00:23:38.975Z,97.40
2023-01-21T00:26:08.795Z,97.50
2023-01-21T00:28:38.240Z,97.50
2023-01-21T00:31:09.046Z,97.60
2023-01-21T00:33:37.567Z,97.60
2023-01-21T00:36:07.728Z,97.60
2023-01-21T00:38:36.253Z,98.00
2023-01-21T00:41:07.582Z,98.00
2023-01-21T00:43:36.045Z,98.40
2023-01-21T00:46:04.353Z,97.90
2023-01-21T00:48:32.941Z,98.50
2023-01-21T00:51:01.399Z,98.40
2023-01-21T00:53:30.882Z,98.40
2023-01-21T00:56:01.254Z,98.10
2023-01-21T00:58:31.216Z,98.10
2023-01-21T01:01:03.553Z,97.90
2023-01-21T01:03:31.734Z,97.90
2023-01-21T01:06:04.217Z,98.20
2023-01-21T01:08:32.729Z,98.30
2023-01-21T01:11:01.438Z,98.40
2023-01-21T01:13:31.884Z,98.90
2023-01-21T01:16:00.324Z,98.60
2023-01-21T01:18:29.916Z,98.20
2023-01-21T01:20:58.018Z,98.10
2023-01-21T01:23:26.269Z,98.10
2023-01-21T01:25:57.694Z,98.00
2023-01-21T01:28:25.986Z,98.50
2023-01-21T01:30:55.994Z,98.30
2023-01-21T01:33:24.749Z,98.00
2023-01-21T01:35:53.108Z,97.80
2023-01-21T01:38:23.148Z,98.40
2023-01-21T01:40:53.052Z,98.20
2023-01-21T01:43:23.509Z,98.30
2023-01-21T01:45:52.096Z,98.40
2023-01-21T01:48:27.172Z,98.20
2023-01-21T01:50:56.788Z,98.10
2023-01-21T01:53:26.145Z,97.80
2023-01-21T01:55:54.523Z,98.20
2023-01-21T01:58:24.035Z,97.90
2023-01-21T02:00:52.313Z,98.10
2023-01-21T02:03:40.085Z,98.70
2023-01-21T02:06:08.578Z,98.90
2023-01-21T02:08:36.884Z,99.40
2023-01-21T02:11:11.997Z,99.00
2023-01-21T02:13:41.384Z,98.90
2023-01-21T02:16:23.474Z,99.40
2023-01-21T02:19:05.711Z,99.00
2023-01-21T02:21:55.064Z,98.90
2023-01-21T02:24:56.644Z,98.90
2023-01-21T02:27:37.519Z,98.90
2023-01-21T02:30:29.065Z,99.10
2023-01-21T02:33:31.095Z,99.00
2023-01-21T02:36:10.713Z,99.00
2023-01-21T02:38:46.730Z,99.00
2023-01-21T02:41:24.686Z,99.50
2023-01-21T02:43:58.428Z,99.60
2023-01-21T02:46:32.586Z,99.60
2023-01-21T02:49:06.755Z,99.40
2023-01-21T02:51:35.761Z,99.20
2023-01-21T02:54:14.902Z,99.30
2023-01-21T02:56:44.688Z,99.40
2023-01-21T02:59:13.977Z,99.10
2023-01-21T03:01:53.819Z,99.10
2023-01-21T03:04:37.304Z,98.90
2023-01-21T03:07:12.738Z,98.80
2023-01-21T03:09:41.009Z,99.00
2023-01-21T03:12:25.705Z,98.90
2023-01-21T03:15:19.289Z,99.00
2023-01-21T03:17:54.790Z,98.70
2023-01-21T03:20:27.511Z,98.90
2023-01-21T03:23:02.220Z,98.70
2023-01-21T03:25:32.719Z,98.70
2023-01-21T03:28:03.532Z,98.60
2023-01-21T03:30:33.109Z,98.50
2023-01-21T03:33:02.907Z,98.60
2023-01-21T03:35:35.323Z,98.40
2023-01-21T03:38:07.772Z,98.40
2023-01-21T03:40:41.791Z,98.40
2023-01-21T03:43:10.747Z,98.30
2023-01-21T03:45:44.230Z,98.10
2023-01-21T03:48:18.967Z,98.20
2023-01-21T03:50:53.065Z,98.30
2023-01-21T03:53:21.060Z,98.10
2023-01-21T03:55:51.145Z,98.10
2023-01-21T03:58:19.203Z,98.00
2023-01-21T04:00:49.163Z,98.00
2023-01-21T04:03:17.124Z,97.80
2023-01-21T04:05:45.112Z,97.50
2023-01-21T04:08:14.438Z,98.30
2023-01-21T04:10:42.399Z,98.10
2023-01-21T04:13:10.325Z,98.00
2023-01-21T04:15:38.248Z,97.80
2023-01-21T04:18:06.212Z,97.80
2023-01-21T04:20:34.283Z,97.80
2023-01-21T04:23:02.206Z,97.70
2023-01-21T04:25:31.465Z,97.80
2023-01-21T04:27:59.382Z,97.90
2023-01-21T04:30:27.653Z,98.10
2023-01-21T04:32:55.634Z,98.10
2023-01-21T04:35:23.582Z,98.30
2023-01-21T04:37:51.599Z,97.90
2023-01-21T04:40:19.659Z,98.20
2023-01-21T04:42:49.026Z,97.90
2023-01-21T04:45:17.099Z,97.90
2023-01-21T04:47:45.606Z,97.60
2023-01-21T04:50:15.193Z,97.40
2023-01-21T04:52:43.697Z,97.50
2023-01-21T04:55:12.261Z,97.30
2023-01-21T04:57:40.296Z,97.60
2023-01-21T05:00:11.156Z,97.50
2023-01-21T05:02:39.124Z,97.30
2023-01-21T05:05:07.948Z,97.40
2023-01-21T05:07:36.134Z,97.10
2023-01-21T05:10:04.161Z,97.00
2023-01-21T05:12:32.193Z,97.00
2023-01-21T05:15:00.180Z,96.90
2023-01-21T05:17:29.461Z,96.90
2023-01-21T05:19:57.418Z,96.80
2023-01-21T05:22:25.438Z,96.90
2023-01-21T05:24:54.299Z,96.60
2023-01-21T05:27:22.254Z,96.70
2023-01-21T05:29:50.291Z,96.50
2023-01-21T05:32:18.175Z,96.50
2023-01-21T05:34:47.407Z,96.40
2023-01-21T05:37:15.543Z,96.50
2023-01-21T05:39:43.563Z,96.30
2023-01-21T05:42:11.530Z,96.40
2023-01-21T05:44:39.463Z,96.20
2023-01-21T05:47:08.742Z,96.60
2023-01-21T05:49:36.901Z,96.80
2023-01-21T05:52:06.657Z,96.60
2023-01-21T05:54:34.571Z,96.70
2023-01-21T05:57:02.497Z,96.60
2023-01-21T05:59:30.446Z,96.30
2023-01-21T06:01:58.369Z,96.30
2023-01-21T06:04:30.541Z,96.30
2023-01-21T06:06:58.584Z,96.20
2023-01-21T06:09:28.252Z,96.20
2023-01-21T06:11:56.213Z,96.10
2023-01-21T06:14:24.395Z,96.00
2023-01-21T06:16:52.351Z,96.10
2023-01-21T06:19:20.266Z,96.10
2023-01-21T06:21:48.198Z,96.00
2023-01-21T06:24:16.254Z,96.20
2023-01-21T06:26:45.604Z,96.10
2023-01-21T06:29:13.622Z,96.30
2023-01-21T06:31:41.636Z,96.20
2023-01-21T06:34:12.502Z,96.10
2023-01-21T06:36:42.588Z,96.10
2023-01-21T06:39:11.020Z,96.50
2023-01-21T06:41:39.594Z,96.60
2023-01-21T06:44:09.094Z,96.60
2023-01-21T06:46:41.062Z,96.90
2023-01-21T06:49:09.271Z,96.50
2023-01-21T06:51:37.168Z,96.60
2023-01-21T06:54:05.301Z,96.50
2023-01-21T06:56:33.231Z,96.40
2023-01-21T06:59:01.124Z,96.40
2023-01-21T07:01:32.546Z,96.30
2023-01-21T07:04:01.546Z,96.80
2023-01-21T07:06:29.499Z,96.50
2023-01-21T07:08:57.455Z,96.20
2023-01-21T07:11:25.822Z,96.10
2023-01-21T07:13:53.852Z,96.20
2023-01-21T07:16:21.793Z,95.90
2023-01-21T07:18:51.173Z,96.10
2023-01-21T07:21:19.413Z,96.20
2023-01-21T07:23:47.336Z,96.10
2023-01-21T07:26:15.259Z,96.10
2023-01-21T07:28:43.141Z,96.00
2023-01-21T07:31:11.243Z,95.90
2023-01-21T07:33:39.344Z,95.80
2023-01-21T07:36:09.363Z,95.90
2023-01-21T07:38:37.313Z,96.10
2023-01-21T07:41:05.625Z,96.10
2023-01-21T07:43:33.505Z,96.10
2023-01-21T07:46:01.602Z,95.90
2023-01-21T07:48:29.518Z,95.90
2023-01-21T07:50:58.954Z,95.80
2023-01-21T07:53:28.496Z,95.70
2023-01-21T07:55:56.496Z,95.80
2023-01-21T07:58:24.401Z,95.80
2023-01-21T08:00:52.329Z,95.80
2023-01-21T08:03:21.848Z,95.80
2023-01-21T08:05:50.966Z,95.80
2023-01-21T08:08:19.059Z,95.70
2023-01-21T08:10:54.060Z,95.60
2023-01-21T08:13:22.148Z,95.60
2023-01-21T08:15:51.757Z,95.70
2023-01-21T08:18:20.130Z,95.90
2023-01-21T08:20:48.159Z,96.10
2023-01-21T08:23:16.260Z,96.10
2023-01-21T08:25:44.162Z,96.00
2023-01-21T08:28:14.184Z,95.70
2023-01-21T08:30:42.240Z,95.60
2023-01-21T08:33:10.232Z,96.00
2023-01-21T08:35:38.260Z,95.70
2023-01-21T08:38:06.639Z,95.50
2023-01-21T08:40:34.573Z,95.60
2023-01-21T08:43:04.089Z,95.50
2023-01-21T08:45:33.417Z,95.20
2023-01-21T08:48:04.234Z,95.50
2023-01-21T08:50:32.286Z,95.50
2023-01-21T08:53:00.213Z,95.50
2023-01-21T08:55:28.199Z,95.50
2023-01-21T08:57:58.320Z,95.50
2023-01-21T09:00:27.019Z,95.40
2023-01-21T09:02:56.746Z,95.30
2023-01-21T09:05:24.660Z,95.30
2023-01-21T09:07:52.657Z,95.40
2023-01-21T09:10:34.785Z,95.40
2023-01-21T09:13:05.590Z,95.40
2023-01-21T09:15:37.921Z,95.50
2023-01-21T09:18:07.875Z,95.50
2023-01-21T09:20:36.290Z,95.50
2023-01-21T09:23:23.963Z,95.60
2023-01-21T09:25:52.732Z,95.60
2023-01-21T09:28:21.551Z,95.30
2023-01-21T09:30:49.750Z,95.50
2023-01-21T09:33:20.431Z,95.50
2023-01-21T09:35:54.093Z,95.50
2023-01-21T09:38:22.240Z,95.50
2023-01-21T09:40:50.463Z,95.40
2023-01-21T09:43:24.367Z,95.40
2023-01-21T09:45:56.223Z,95.10
2023-01-21T09:48:30.403Z,95.30
2023-01-21T09:51:01.647Z,95.30
2023-01-21T09:53:36.918Z,95.10
2023-01-21T09:56:11.831Z,95.30
2023-01-21T09:58:43.122Z,95.30
2023-01-21T10:01:16.617Z,95.50
2023-01-21T10:03:54.090Z,95.40
2023-01-21T10:06:35.239Z,95.20
2023-01-21T10:09:36.490Z,95.20
2023-01-21T10:12:26.243Z,95.00
2023-01-21T10:15:31.442Z,95.10
2023-01-21T10:18:04.082Z,95.50
2023-01-21T10:20:36.955Z,95.30
2023-01-21T10:23:12.173Z,94.80
2023-01-21T10:25:41.374Z,95.20
2023-01-21T10:28:15.243Z,94.90
2023-01-21T10:30:46.578Z,95.10
2023-01-21T10:33:21.378Z,94.70
2023-01-21T10:36:16.607Z,94.70
2023-01-21T10:38:54.254Z,94.60
2023-01-21T10:41:36.130Z,94.40
2023-01-21T10:44:14.608Z,94.80
2023-01-21T10:46:49.692Z,94.80
2023-01-21T10:49:29.137Z,94.90
2023-01-21T10:52:03.848Z,94.70
2023-01-21T10:54:43.365Z,94.50
2023-01-21T10:57:23.401Z,94.50
2023-01-21T10:59:52.555Z,94.70
2023-01-21T11:02:25.716Z,94.80
2023-01-21T11:04:53.751Z,94.60
2023-01-21T11:07:23.949Z,94.60
2023-01-21T11:09:53.478Z,94.30
2023-01-21T11:12:24.114Z,94.70
2023-01-21T11:14:56.350Z,94.50
2023-01-21T11:17:33.522Z,94.50
2023-01-21T11:20:03.784Z,94.40
2023-01-21T11:22:34.037Z,94.30
2023-01-21T11:25:02.736Z,94.10
2023-01-21T11:27:35.405Z,94.60
2023-01-21T11:30:15.645Z,94.60
2023-01-21T11:32:52.758Z,94.80
2023-01-21T11:35:24.307Z,95.40
2023-01-21T11:37:54.333Z,95.20
2023-01-21T11:40:25.727Z,95.30
2023-01-21T11:42:55.490Z,95.30
2023-01-21T11:45:29.030Z,94.80
2023-01-21T11:47:58.487Z,94.80
2023-01-21T11:50:29.100Z,94.70
2023-01-21T11:53:17.288Z,94.90
2023-01-21T11:55:48.829Z,94.80
2023-01-21T11:58:19.748Z,94.60
2023-01-21T12:00:50.736Z,94.90
2023-01-21T12:03:22.819Z,95.00
2023-01-21T12:05:53.182Z,94.80
2023-01-21T12:08:25.486Z,94.80
2023-01-21T12:10:55.929Z,94.70
2023-01-21T12:13:32.113Z,94.70
2023-01-21T12:16:21.744Z,94.90
2023-01-21T12:19:28.669Z,95.10
2023-01-21T12:22:12.394Z,94.90
2023-01-21T12:24:57.839Z,95.10
2023-01-21T12:27:32.216Z,95.20
2023-01-21T12:30:09.835Z,95.30
2023-01-21T12:32:41.904Z,95.60
2023-01-21T12:35:15.001Z,95.90
2023-01-21T12:37:48.332Z,96.20
2023-01-21T12:40:23.943Z,95.70
2023-01-21T12:42:57.543Z,95.90
2023-01-21T12:45:32.185Z,95.80
2023-01-21T12:48:04.371Z,95.40
2023-01-21T12:50:39.493Z,95.50
2023-01-21T12:53:17.499Z,95.80
2023-01-21T12:56:13.095Z,95.90
2023-01-21T12:58:46.254Z,95.70
2023-01-21T13:01:18.103Z,95.70
2023-01-21T13:03:56.188Z,95.70
2023-01-21T13:06:51.997Z,96.20
2023-01-21T13:09:23.111Z,95.80
2023-01-21T13:11:57.496Z,96.20
2023-01-21T13:14:31.077Z,96.10
2023-01-21T13:17:03.480Z,96.00
2023-01-21T13:19:31.569Z,95.70
2023-01-21T13:22:05.667Z,96.10
2023-01-21T13:24:44.139Z,96.50
2023-01-21T13:27:22.055Z,96.70
2023-01-21T13:29:58.624Z,96.80
2023-01-21T13:32:38.938Z,97.00
2023-01-21T13:35:24.075Z,96.90
2023-01-21T13:38:01.264Z,96.70
2023-01-21T13:40:39.737Z,96.80
2023-01-21T13:43:21.097Z,96.90
2023-01-21T13:46:01.220Z,96.90
2023-01-21T13:48:58.405Z,96.70
2023-01-21T13:51:43.171Z,96.50
2023-01-21T13:54:43.239Z,96.60
2023-01-21T13:57:34.480Z,96.80
2023-01-21T14:00:10.413Z,96.90
2023-01-21T14:02:44.308Z,96.70
2023-01-21T14:05:17.317Z,96.80
2023-01-21T14:07:51.616Z,96.80
2023-01-21T14:10:25.867Z,96.80
2023-01-21T14:13:12.775Z,96.90
2023-01-21T14:15:58.248Z,96.90
2023-01-21T14:19:07.943Z,97.10
2023-01-21T14:21:51.999Z,97.20
2023-01-21T14:24:34.864Z,97.20
2023-01-21T14:27:18.592Z,97.00
2023-01-21T14:29:48.650Z,96.90
2023-01-21T14:32:23.286Z,97.30
2023-01-21T14:35:03.308Z,97.40
2023-01-21T14:37:35.675Z,97.10
2023-01-21T14:40:13.081Z,97.10
2023-01-21T14:42:43.596Z,96.80
2023-01-21T14:45:13.807Z,96.70
2023-01-21T14:47:46.770Z,96.50
2023-01-21T14:50:51.919Z,96.60
2023-01-21T14:53:24.330Z,96.70
2023-01-21T14:56:08.898Z,96.50
2023-01-21T14:58:37.760Z,96.50
2023-01-21T15:01:07.829Z,96.40
2023-01-21T15:03:49.643Z,97.00
2023-01-21T15:06:22.809Z,96.60
2023-01-21T15:08:53.550Z,97.30
2023-01-21T15:11:23.340Z,97.00
2023-01-21T15:14:03.373Z,97.00
2023-01-21T15:16:37.268Z,97.10
2023-01-21T15:19:34.685Z,97.10
2023-01-21T15:22:21.766Z,97.10
2023-01-21T15:25:26.738Z,96.70
2023-01-21T15:28:38.125Z,96.70
2023-01-21T15:31:09.653Z,96.70
2023-01-21T15:33:44.419Z,96.90
2023-01-21T15:36:21.672Z,97.10
2023-01-21T15:38:50.416Z,96.90
2023-01-21T15:41:27.801Z,97.30
2023-01-21T15:44:11.836Z,97.00
2023-01-21T15:46:46.642Z,96.80
2023-01-21T15:49:31.683Z,96.40
2023-01-21T15:52:12.431Z,96.50
2023-01-21T15:54:47.187Z,96.40
2023-01-21T15:57:32.537Z,96.10
2023-01-21T16:00:16.570Z,96.40
2023-01-21T16:02:52.883Z,96.40
2023-01-21T16:05:28.817Z,96.30
2023-01-21T16:08:05.720Z,96.40
2023-01-21T16:10:41.633Z,96.90
2023-01-21T16:13:19.599Z,96.70
2023-01-21T16:16:00.763Z,96.80
2023-01-21T16:18:34.680Z,97.10
2023-01-21T16:21:04.613Z,97.10
2023-01-21T16:23:37.253Z,96.90
2023-01-21T16:26:05.897Z,96.60
2023-01-21T16:28:44.277Z,96.60
2023-01-21T16:31:12.364Z,96.40
2023-01-21T16:33:40.333Z,96.80
2023-01-21T16:36:13.981Z,96.70
2023-01-21T16:38:44.833Z,96.70
2023-01-21T16:41:27.661Z,96.80
2023-01-21T16:43:59.309Z,96.90
2023-01-21T16:46:32.516Z,96.80
2023-01-21T16:49:01.578Z,96.80
2023-01-21T16:51:33.308Z,96.90
2023-01-21T16:54:28.185Z,97.00
2023-01-21T16:56:59.463Z,97.10
2023-01-21T16:59:30.638Z,97.00
2023-01-21T17:02:00.455Z,96.90
2023-01-21T17:04:30.250Z,97.50
2023-01-21T17:06:58.628Z,97.70
2023-01-21T17:09:32.057Z,97.30
2023-01-21T17:12:05.779Z,97.10
2023-01-21T17:14:35.376Z,97.20
2023-01-21T17:17:06.987Z,97.30
2023-01-21T17:19:37.607Z,97.40
2023-01-21T17:22:14.252Z,97.20
2023-01-21T17:24:56.759Z,96.90
2023-01-21T17:27:26.256Z,96.80
2023-01-21T17:29:54.355Z,97.20
2023-01-21T17:32:27.304Z,97.10
2023-01-21T17:35:10.679Z,97.00
2023-01-21T17:37:44.403Z,97.00
2023-01-21T17:40:31.265Z,96.90
2023-01-21T17:43:01.457Z,96.80
2023-01-21T17:45:31.934Z,97.10
2023-01-21T17:48:09.548Z,97.00
2023-01-21T17:50:45.122Z,96.80
2023-01-21T17:53:20.825Z,97.00
2023-01-21T17:55:59.589Z,96.80
2023-01-21T17:58:50.663Z,96.60
2023-01-21T18:01:19.808Z,96.80
2023-01-21T18:03:47.846Z,96.80
2023-01-21T18:06:21.213Z,96.70
2023-01-21T18:08:50.487Z,96.80
2023-01-21T18:11:20.098Z,96.40
2023-01-21T18:13:48.338Z,96.10
2023-01-21T18:16:17.092Z,96.40
2023-01-21T18:18:46.053Z,96.70
2023-01-21T18:21:19.962Z,96.30
2023-01-21T18:23:48.769Z,96.40
2023-01-21T18:26:25.743Z,96.40
2023-01-21T18:28:54.213Z,96.40
2023-01-21T18:31:22.959Z,96.40
2023-01-21T18:33:51.025Z,96.20
2023-01-21T18:36:19.148Z,96.40
2023-01-21T18:38:47.144Z,96.20
2023-01-21T18:41:15.061Z,96.90
2023-01-21T18:43:44.472Z,96.90
2023-01-21T18:46:14.586Z,96.70
2023-01-21T18:48:43.175Z,96.40
2023-01-21T18:51:11.425Z,96.40
2023-01-21T18:53:39.540Z,97.00
2023-01-21T18:56:18.704Z,96.80
2023-01-21T18:58:48.060Z,97.20
2023-01-21T19:01:23.217Z,97.10
2023-01-21T19:03:54.666Z,96.80
2023-01-21T19:06:24.522Z,96.80
2023-01-21T19:08:52.587Z,96.70
2023-01-21T19:11:20.606Z,96.70
2023-01-21T19:13:49.964Z,96.50
2023-01-21T19:16:20.112Z,96.50
2023-01-21T19:18:48.414Z,96.60
2023-01-21T19:21:16.384Z,96.90
2023-01-21T19:23:44.436Z,96.70
2023-01-21T19:26:14.640Z,96.50
2023-01-21T19:28:42.845Z,96.80
2023-01-21T19:31:12.296Z,96.60
2023-01-21T19:33:42.812Z,96.40
2023-01-21T19:36:15.821Z,96.70
2023-01-21T19:38:45.428Z,96.70
2023-01-21T19:41:13.338Z,96.80
2023-01-21T19:43:42.146Z,96.60
2023-01-21T19:46:13.283Z,96.40
2023-01-21T19:48:42.253Z,96.50
2023-01-21T19:51:10.440Z,96.50
2023-01-21T19:53:38.390Z,96.50
2023-01-21T19:56:07.595Z,96.70
2023-01-21T19:58:35.727Z,96.90
2023-01-21T20:01:03.857Z,97.30
2023-01-21T20:03:33.157Z,97.00
2023-01-21T20:06:03.117Z,96.90
2023-01-21T20:08:32.103Z,96.80
2023-01-21T20:11:00.026Z,96.90
2023-01-21T20:13:31.285Z,96.70
2023-01-21T20:16:03.601Z,97.00
2023-01-21T20:18:33.586Z,96.80
2023-01-21T20:21:01.674Z,96.70
2023-01-21T20:23:32.472Z,96.80
2023-01-21T20:26:01.109Z,96.80
2023-01-21T20:28:37.238Z,96.70
2023-01-21T20:31:07.165Z,96.50
2023-01-21T20:33:37.238Z,96.50
2023-01-21T20:36:07.533Z,96.50
2023-01-21T20:38:36.955Z,96.30
2023-01-21T20:41:06.206Z,96.40
2023-01-21T20:43:35.176Z,96.30
2023-01-21T20:46:06.299Z,96.30
2023-01-21T20:48:39.668Z,96.40
2023-01-21T20:51:08.088Z,96.50
2023-01-21T20:53:36.534Z,96.50
2023-01-21T20:56:16.766Z,96.20
2023-01-21T20:58:45.307Z,96.40
2023-01-21T21:01:13.472Z,96.30
2023-01-21T21:03:43.515Z,96.10
2023-01-21T21:06:15.935Z,96.20
2023-01-21T21:08:44.266Z,96.40
2023-01-21T21:11:12.264Z,96.30
2023-01-21T21:13:40.203Z,96.20
2023-01-21T21:16:19.127Z,96.00
2023-01-21T21:18:49.354Z,96.00
2023-01-21T21:21:18.775Z,96.30
2023-01-21T21:23:47.401Z,96.10
2023-01-21T21:26:18.394Z,96.40
2023-01-21T21:28:47.642Z,96.60
2023-01-21T21:31:17.177Z,96.30
2023-01-21T21:33:45.437Z,96.20
2023-01-21T21:36:15.897Z,96.20
2023-01-21T21:38:44.702Z,96.20
2023-01-21T21:41:34.794Z,96.30
2023-01-21T21:44:02.845Z,96.20
2023-01-21T21:46:48.413Z,96.10
2023-01-21T21:49:16.617Z,96.00
2023-01-21T21:51:46.131Z,96.30
2023-01-21T21:54:16.110Z,96.40
2023-01-21T21:56:44.403Z,96.60
2023-01-21T21:59:12.935Z,96.30
2023-01-21T22:01:42.384Z,96.30
2023-01-21T22:04:10.523Z,96.30
2023-01-21T22:06:39.157Z,96.50
2023-01-21T22:09:09.540Z,96.80
2023-01-21T22:11:37.656Z,96.90
2023-01-21T22:14:05.676Z,97.00
2023-01-21T22:16:34.156Z,96.80
2023-01-21T22:19:02.486Z,96.60
2023-01-21T22:21:33.160Z,96.60
2023-01-21T22:24:01.825Z,96.70
2023-01-21T22:26:31.173Z,96.70
2023-01-21T22:28:59.273Z,96.70
2023-01-21T22:31:29.347Z,96.60
2023-01-21T22:33:58.381Z,96.50
2023-01-21T22:36:29.496Z,96.40
2023-01-21T22:38:58.080Z,96.40
2023-01-21T22:41:26.878Z,96.60
2023-01-21T22:43:56.249Z,96.50
2023-01-21T22:46:26.454Z,96.60
2023-01-21T22:48:55.058Z,96.30
2023-01-21T22:51:23.821Z,96.90
2023-01-21T22:53:52.847Z,96.80
2023-01-21T22:56:39.889Z,97.00
2023-01-21T22:59:13.630Z,97.20
2023-01-21T23:01:41.667Z,96.90
2023-01-21T23:04:10.174Z,96.90
2023-01-21T23:06:38.581Z,96.80
2023-01-21T23:09:09.230Z,96.80
2023-01-21T23:11:39.496Z,96.80
2023-01-21T23:14:08.693Z,97.00
2023-01-21T23:16:38.149Z,96.90
2023-01-21T23:19:06.114Z,96.90
2023-01-21T23:21:34.338Z,96.90
2023-01-21T23:24:02.277Z,96.90
2023-01-21T23:26:30.231Z,96.90
2023-01-21T23:28:58.718Z,96.90
2023-01-21T23:31:26.962Z,96.90
2023-01-21T23:33:57.295Z,96.90
2023-01-21T23:36:25.431Z,97.00
2023-01-21T23:38:53.466Z,97.00
2023-01-21T23:41:21.551Z,97.10
2023-01-21T23:43:49.592Z,97.10
2023-01-21T23:46:19.560Z,97.20
2023-01-21T23:48:47.824Z,97.40
2023-01-21T23:51:18.368Z,97.40
2023-01-21T23:53:47.585Z,97.40
2023-01-21T23:56:17.423Z,97.30
2023-01-21T23:58:45.385Z,97.40
